sensor_id;sensor_type;location;lat;lon;timestamp;temperature;humidity
46976;DHT22;32724;51.094;6.996;2022-07-09T00:00:24;15.50;99.90
46976;DHT22;32724;51.094;6.996;2022-07-09T00:02:50;15.50;99.90
46976;DHT22;32724;51.094;6.996;2022-07-09T00:05:15;15.40;99.90
46976;DHT22;32724;51.094;6.996;2022-07-09T00:07:41;15.40;99.90
46976;DHT22;32724;51.094;6.996;2022-07-09T00:10:06;15.40;99.90
46976;DHT22;32724;51.094;6.996;2022-07-09T00:12:32;15.40;99.90
46976;DHT22;32724;51.094;6.996;2022-07-09T00:14:58;15.30;99.90
46976;DHT22;32724;51.094;6.996;2022-07-09T00:17:23;15.30;99.90
46976;DHT22;32724;51.094;6.996;2022-07-09T00:19:49;15.30;99.90
46976;DHT22;32724;51.094;6.996;2022-07-09T00:22:15;15.30;99.90
46976;DHT22;32724;51.094;6.996;2022-07-09T00:24:40;15.20;99.90
46976;DHT22;32724;51.094;6.996;2022-07-09T00:27:06;15.10;99.90
46976;DHT22;32724;51.094;6.996;2022-07-09T00:29:31;15.10;99.90
46976;DHT22;32724;51.094;6.996;2022-07-09T00:31:57;15.00;99.90
46976;DHT22;32724;51.094;6.996;2022-07-09T00:34:22;15.00;99.90
46976;DHT22;32724;51.094;6.996;2022-07-09T00:36:47;15.00;99.90
46976;DHT22;32724;51.094;6.996;2022-07-09T00:39:13;15.00;99.90
46976;DHT22;32724;51.094;6.996;2022-07-09T00:41:38;15.00;99.90
46976;DHT22;32724;51.094;6.996;2022-07-09T00:44:04;15.00;99.90
46976;DHT22;32724;51.094;6.996;2022-07-09T00:46:29;15.00;99.90
46976;DHT22;32724;51.094;6.996;2022-07-09T00:48:55;14.90;99.90
46976;DHT22;32724;51.094;6.996;2022-07-09T00:51:20;14.90;99.90
46976;DHT22;32724;51.094;6.996;2022-07-09T00:53:46;14.90;99.90
46976;DHT22;32724;51.094;6.996;2022-07-09T00:56:11;14.80;99.90
46976;DHT22;32724;51.094;6.996;2022-07-09T00:58:37;14.80;99.90
46976;DHT22;32724;51.094;6.996;2022-07-09T01:01:03;14.80;99.90
46976;DHT22;32724;51.094;6.996;2022-07-09T01:03:29;14.70;99.90
46976;DHT22;32724;51.094;6.996;2022-07-09T01:05:54;14.70;99.90
46976;DHT22;32724;51.094;6.996;2022-07-09T01:08:21;14.70;99.90
46976;DHT22;32724;51.094;6.996;2022-07-09T01:10:47;14.70;99.90
46976;DHT22;32724;51.094;6.996;2022-07-09T01:13:13;14.60;99.90
46976;DHT22;32724;51.094;6.996;2022-07-09T01:15:39;14.60;99.90
46976;DHT22;32724;51.094;6.996;2022-07-09T01:18:04;14.50;99.90
46976;DHT22;32724;51.094;6.996;2022-07-09T01:20:30;14.50;99.90
46976;DHT22;32724;51.094;6.996;2022-07-09T01:22:56;14.50;99.90
46976;DHT22;32724;51.094;6.996;2022-07-09T01:25:24;14.50;99.90
46976;DHT22;32724;51.094;6.996;2022-07-09T01:27:52;14.40;99.90
46976;DHT22;32724;51.094;6.996;2022-07-09T01:30:24;14.40;99.90
46976;DHT22;32724;51.094;6.996;2022-07-09T01:32:51;14.40;99.90
46976;DHT22;32724;51.094;6.996;2022-07-09T01:35:17;14.40;99.90
46976;DHT22;32724;51.094;6.996;2022-07-09T01:37:43;14.30;99.90
46976;DHT22;32724;51.094;6.996;2022-07-09T01:40:08;14.30;99.90
46976;DHT22;32724;51.094;6.996;2022-07-09T01:42:34;14.30;99.90
46976;DHT22;32724;51.094;6.996;2022-07-09T01:44:59;14.30;99.90
46976;DHT22;32724;51.094;6.996;2022-07-09T01:47:25;14.30;99.90
46976;DHT22;32724;51.094;6.996;2022-07-09T01:49:50;14.30;99.90
46976;DHT22;32724;51.094;6.996;2022-07-09T01:52:16;14.30;99.90
46976;DHT22;32724;51.094;6.996;2022-07-09T01:54:41;14.30;99.90
46976;DHT22;32724;51.094;6.996;2022-07-09T01:57:07;14.30;99.90
46976;DHT22;32724;51.094;6.996;2022-07-09T01:59:32;14.20;99.90
46976;DHT22;32724;51.094;6.996;2022-07-09T02:01:58;14.20;99.90
46976;DHT22;32724;51.094;6.996;2022-07-09T02:04:23;14.20;99.90
46976;DHT22;32724;51.094;6.996;2022-07-09T02:06:49;14.20;99.90
46976;DHT22;32724;51.094;6.996;2022-07-09T02:09:14;14.20;99.90
46976;DHT22;32724;51.094;6.996;2022-07-09T02:11:40;14.20;99.90
46976;DHT22;32724;51.094;6.996;2022-07-09T02:14:05;14.20;99.90
46976;DHT22;32724;51.094;6.996;2022-07-09T02:16:30;14.20;99.90
46976;DHT22;32724;51.094;6.996;2022-07-09T02:18:56;14.20;99.90
46976;DHT22;32724;51.094;6.996;2022-07-09T02:21:21;14.10;99.90
46976;DHT22;32724;51.094;6.996;2022-07-09T02:23:47;14.20;99.90
46976;DHT22;32724;51.094;6.996;2022-07-09T02:26:14;14.20;99.90
46976;DHT22;32724;51.094;6.996;2022-07-09T02:28:40;14.30;99.90
46976;DHT22;32724;51.094;6.996;2022-07-09T02:31:06;14.30;99.90
46976;DHT22;32724;51.094;6.996;2022-07-09T02:33:32;14.30;99.90
46976;DHT22;32724;51.094;6.996;2022-07-09T02:35:58;14.40;99.90
46976;DHT22;32724;51.094;6.996;2022-07-09T02:38:24;14.40;99.90
46976;DHT22;32724;51.094;6.996;2022-07-09T02:40:50;14.40;99.90
46976;DHT22;32724;51.094;6.996;2022-07-09T02:43:15;14.50;99.90
46976;DHT22;32724;51.094;6.996;2022-07-09T02:45:41;14.60;99.90
46976;DHT22;32724;51.094;6.996;2022-07-09T02:48:06;14.70;99.90
46976;DHT22;32724;51.094;6.996;2022-07-09T02:50:31;14.70;99.90
46976;DHT22;32724;51.094;6.996;2022-07-09T02:52:57;14.70;99.90
46976;DHT22;32724;51.094;6.996;2022-07-09T02:55:23;14.70;99.90
46976;DHT22;32724;51.094;6.996;2022-07-09T02:57:48;14.80;99.90
46976;DHT22;32724;51.094;6.996;2022-07-09T03:00:14;14.80;99.90
46976;DHT22;32724;51.094;6.996;2022-07-09T03:02:40;14.70;99.90
46976;DHT22;32724;51.094;6.996;2022-07-09T03:05:05;14.80;99.90
46976;DHT22;32724;51.094;6.996;2022-07-09T03:07:31;14.80;99.90
46976;DHT22;32724;51.094;6.996;2022-07-09T03:09:56;14.70;99.90
46976;DHT22;32724;51.094;6.996;2022-07-09T03:12:22;14.70;99.90
46976;DHT22;32724;51.094;6.996;2022-07-09T03:14:47;14.70;99.90
46976;DHT22;32724;51.094;6.996;2022-07-09T03:17:13;14.90;99.90
46976;DHT22;32724;51.094;6.996;2022-07-09T03:19:38;14.90;99.90
46976;DHT22;32724;51.094;6.996;2022-07-09T03:22:04;14.90;99.90
46976;DHT22;32724;51.094;6.996;2022-07-09T03:24:29;15.00;99.90
46976;DHT22;32724;51.094;6.996;2022-07-09T03:26:55;15.00;99.90
46976;DHT22;32724;51.094;6.996;2022-07-09T03:29:20;15.00;99.90
46976;DHT22;32724;51.094;6.996;2022-07-09T03:31:46;15.10;99.90
46976;DHT22;32724;51.094;6.996;2022-07-09T03:34:11;15.00;99.90
46976;DHT22;32724;51.094;6.996;2022-07-09T03:36:37;15.00;99.90
46976;DHT22;32724;51.094;6.996;2022-07-09T03:39:02;15.00;99.90
46976;DHT22;32724;51.094;6.996;2022-07-09T03:41:28;14.90;99.90
46976;DHT22;32724;51.094;6.996;2022-07-09T03:43:54;14.80;99.90
46976;DHT22;32724;51.094;6.996;2022-07-09T03:46:19;14.70;99.90
46976;DHT22;32724;51.094;6.996;2022-07-09T03:48:44;14.60;99.90
46976;DHT22;32724;51.094;6.996;2022-07-09T03:51:12;14.60;99.90
46976;DHT22;32724;51.094;6.996;2022-07-09T03:53:37;14.50;99.90
46976;DHT22;32724;51.094;6.996;2022-07-09T03:56:03;14.50;99.90
46976;DHT22;32724;51.094;6.996;2022-07-09T03:58:28;14.50;99.90
46976;DHT22;32724;51.094;6.996;2022-07-09T04:00:53;14.50;99.90
46976;DHT22;32724;51.094;6.996;2022-07-09T04:03:20;14.50;99.90
46976;DHT22;32724;51.094;6.996;2022-07-09T04:05:45;14.50;99.90
46976;DHT22;32724;51.094;6.996;2022-07-09T04:08:11;14.60;99.90
46976;DHT22;32724;51.094;6.996;2022-07-09T04:10:36;14.70;99.90
46976;DHT22;32724;51.094;6.996;2022-07-09T04:13:02;14.80;99.90
46976;DHT22;32724;51.094;6.996;2022-07-09T04:15:27;14.70;99.90
46976;DHT22;32724;51.094;6.996;2022-07-09T04:17:54;14.80;99.90
46976;DHT22;32724;51.094;6.996;2022-07-09T04:20:21;14.80;99.90
46976;DHT22;32724;51.094;6.996;2022-07-09T04:22:47;14.80;99.90
46976;DHT22;32724;51.094;6.996;2022-07-09T04:25:12;14.90;99.90
46976;DHT22;32724;51.094;6.996;2022-07-09T04:27:38;15.00;99.90
46976;DHT22;32724;51.094;6.996;2022-07-09T04:30:05;15.00;99.90
46976;DHT22;32724;51.094;6.996;2022-07-09T04:32:30;15.10;99.90
46976;DHT22;32724;51.094;6.996;2022-07-09T04:34:56;15.20;99.90
46976;DHT22;32724;51.094;6.996;2022-07-09T04:37:21;15.30;99.90
46976;DHT22;32724;51.094;6.996;2022-07-09T04:39:47;15.40;99.90
46976;DHT22;32724;51.094;6.996;2022-07-09T04:42:13;15.50;99.90
46976;DHT22;32724;51.094;6.996;2022-07-09T04:44:38;15.40;99.90
46976;DHT22;32724;51.094;6.996;2022-07-09T04:47:04;15.50;99.90
46976;DHT22;32724;51.094;6.996;2022-07-09T04:49:29;15.60;99.90
46976;DHT22;32724;51.094;6.996;2022-07-09T04:51:55;15.70;99.90
46976;DHT22;32724;51.094;6.996;2022-07-09T04:54:20;15.90;99.90
46976;DHT22;32724;51.094;6.996;2022-07-09T04:56:46;16.00;99.90
46976;DHT22;32724;51.094;6.996;2022-07-09T04:59:11;16.30;99.90
46976;DHT22;32724;51.094;6.996;2022-07-09T05:01:37;16.30;99.90
46976;DHT22;32724;51.094;6.996;2022-07-09T05:04:02;16.30;99.90
46976;DHT22;32724;51.094;6.996;2022-07-09T05:06:28;16.30;99.90
46976;DHT22;32724;51.094;6.996;2022-07-09T05:08:53;16.30;99.90
46976;DHT22;32724;51.094;6.996;2022-07-09T05:11:19;16.50;99.90
46976;DHT22;32724;51.094;6.996;2022-07-09T05:13:45;17.10;99.90
46976;DHT22;32724;51.094;6.996;2022-07-09T05:16:11;18.30;99.90
46976;DHT22;32724;51.094;6.996;2022-07-09T05:18:37;19.80;99.90
46976;DHT22;32724;51.094;6.996;2022-07-09T05:21:02;21.40;99.90
46976;DHT22;32724;51.094;6.996;2022-07-09T05:23:28;22.50;99.90
46976;DHT22;32724;51.094;6.996;2022-07-09T05:25:53;22.60;99.90
46976;DHT22;32724;51.094;6.996;2022-07-09T05:28:19;22.20;99.90
46976;DHT22;32724;51.094;6.996;2022-07-09T05:30:44;21.70;99.90
46976;DHT22;32724;51.094;6.996;2022-07-09T05:33:10;21.00;99.90
46976;DHT22;32724;51.094;6.996;2022-07-09T05:35:36;20.60;99.90
46976;DHT22;32724;51.094;6.996;2022-07-09T05:38:01;20.20;99.90
46976;DHT22;32724;51.094;6.996;2022-07-09T05:40:27;19.80;99.90
46976;DHT22;32724;51.094;6.996;2022-07-09T05:42:52;19.60;99.90
46976;DHT22;32724;51.094;6.996;2022-07-09T05:45:18;20.50;99.90
46976;DHT22;32724;51.094;6.996;2022-07-09T05:47:44;21.70;99.90
46976;DHT22;32724;51.094;6.996;2022-07-09T05:50:09;23.00;99.90
46976;DHT22;32724;51.094;6.996;2022-07-09T05:52:34;24.00;99.90
46976;DHT22;32724;51.094;6.996;2022-07-09T05:55:00;24.20;99.90
46976;DHT22;32724;51.094;6.996;2022-07-09T05:57:25;23.70;99.90
46976;DHT22;32724;51.094;6.996;2022-07-09T05:59:51;22.70;99.90
46976;DHT22;32724;51.094;6.996;2022-07-09T06:02:17;21.80;99.90
46976;DHT22;32724;51.094;6.996;2022-07-09T06:04:42;20.90;99.90
46976;DHT22;32724;51.094;6.996;2022-07-09T06:07:08;21.10;99.90
46976;DHT22;32724;51.094;6.996;2022-07-09T06:09:34;22.00;99.90
46976;DHT22;32724;51.094;6.996;2022-07-09T06:12:00;22.80;99.90
46976;DHT22;32724;51.094;6.996;2022-07-09T06:14:25;23.80;99.90
46976;DHT22;32724;51.094;6.996;2022-07-09T06:16:51;24.70;99.90
46976;DHT22;32724;51.094;6.996;2022-07-09T06:19:16;25.30;99.90
46976;DHT22;32724;51.094;6.996;2022-07-09T06:21:42;25.80;99.90
46976;DHT22;32724;51.094;6.996;2022-07-09T06:24:07;25.50;99.90
46976;DHT22;32724;51.094;6.996;2022-07-09T06:26:33;25.20;99.90
46976;DHT22;32724;51.094;6.996;2022-07-09T06:29:01;25.40;99.90
46976;DHT22;32724;51.094;6.996;2022-07-09T06:31:26;26.00;99.90
46976;DHT22;32724;51.094;6.996;2022-07-09T06:33:52;26.00;99.90
46976;DHT22;32724;51.094;6.996;2022-07-09T06:36:17;26.30;99.90
46976;DHT22;32724;51.094;6.996;2022-07-09T06:38:43;26.50;99.90
46976;DHT22;32724;51.094;6.996;2022-07-09T06:41:27;26.90;99.90
46976;DHT22;32724;51.094;6.996;2022-07-09T06:43:53;27.10;99.90
46976;DHT22;32724;51.094;6.996;2022-07-09T06:46:18;27.70;99.90
46976;DHT22;32724;51.094;6.996;2022-07-09T06:48:44;27.30;99.90
46976;DHT22;32724;51.094;6.996;2022-07-09T06:51:09;26.40;99.90
46976;DHT22;32724;51.094;6.996;2022-07-09T06:53:34;25.30;99.90
46976;DHT22;32724;51.094;6.996;2022-07-09T06:56:01;24.80;99.90
46976;DHT22;32724;51.094;6.996;2022-07-09T06:58:26;24.40;99.90
46976;DHT22;32724;51.094;6.996;2022-07-09T07:00:52;24.00;99.90
46976;DHT22;32724;51.094;6.996;2022-07-09T07:03:17;23.80;99.90
46976;DHT22;32724;51.094;6.996;2022-07-09T07:05:43;23.80;99.90
46976;DHT22;32724;51.094;6.996;2022-07-09T07:08:08;23.90;99.90
46976;DHT22;32724;51.094;6.996;2022-07-09T07:10:34;24.10;99.90
46976;DHT22;32724;51.094;6.996;2022-07-09T07:13:00;25.20;99.90
46976;DHT22;32724;51.094;6.996;2022-07-09T07:15:25;25.30;99.90
46976;DHT22;32724;51.094;6.996;2022-07-09T07:17:51;24.60;99.90
46976;DHT22;32724;51.094;6.996;2022-07-09T07:20:16;24.00;99.90
46976;DHT22;32724;51.094;6.996;2022-07-09T07:22:44;23.50;99.90
46976;DHT22;32724;51.094;6.996;2022-07-09T07:25:10;22.90;99.90
46976;DHT22;32724;51.094;6.996;2022-07-09T07:27:36;22.60;99.90
46976;DHT22;32724;51.094;6.996;2022-07-09T07:30:01;22.70;99.90
46976;DHT22;32724;51.094;6.996;2022-07-09T07:32:27;23.00;99.90
46976;DHT22;32724;51.094;6.996;2022-07-09T07:34:52;23.10;99.90
46976;DHT22;32724;51.094;6.996;2022-07-09T07:37:18;23.10;99.90
46976;DHT22;32724;51.094;6.996;2022-07-09T07:39:43;23.40;99.90
46976;DHT22;32724;51.094;6.996;2022-07-09T07:42:09;23.70;99.90
46976;DHT22;32724;51.094;6.996;2022-07-09T07:44:34;24.20;99.90
46976;DHT22;32724;51.094;6.996;2022-07-09T07:47:00;24.20;99.90
46976;DHT22;32724;51.094;6.996;2022-07-09T07:49:25;24.00;99.90
46976;DHT22;32724;51.094;6.996;2022-07-09T07:51:51;23.90;99.90
46976;DHT22;32724;51.094;6.996;2022-07-09T07:54:16;24.00;99.90
46976;DHT22;32724;51.094;6.996;2022-07-09T07:56:42;24.00;99.90
46976;DHT22;32724;51.094;6.996;2022-07-09T07:59:08;24.20;99.90
46976;DHT22;32724;51.094;6.996;2022-07-09T08:01:33;24.20;99.90
46976;DHT22;32724;51.094;6.996;2022-07-09T08:03:59;24.30;99.90
46976;DHT22;32724;51.094;6.996;2022-07-09T08:06:24;24.50;99.90
46976;DHT22;32724;51.094;6.996;2022-07-09T08:08:50;24.40;99.90
46976;DHT22;32724;51.094;6.996;2022-07-09T08:11:15;24.10;99.90
46976;DHT22;32724;51.094;6.996;2022-07-09T08:13:41;23.70;99.90
46976;DHT22;32724;51.094;6.996;2022-07-09T08:16:06;23.90;99.90
46976;DHT22;32724;51.094;6.996;2022-07-09T08:18:32;23.80;99.90
46976;DHT22;32724;51.094;6.996;2022-07-09T08:20:58;23.60;99.90
46976;DHT22;32724;51.094;6.996;2022-07-09T08:23:23;23.30;99.90
46976;DHT22;32724;51.094;6.996;2022-07-09T08:25:49;23.10;99.90
46976;DHT22;32724;51.094;6.996;2022-07-09T08:28:15;22.90;99.90
46976;DHT22;32724;51.094;6.996;2022-07-09T08:30:41;23.00;99.90
46976;DHT22;32724;51.094;6.996;2022-07-09T08:33:06;23.10;99.90
46976;DHT22;32724;51.094;6.996;2022-07-09T08:35:32;23.30;99.90
46976;DHT22;32724;51.094;6.996;2022-07-09T08:37:57;23.40;99.90
46976;DHT22;32724;51.094;6.996;2022-07-09T08:40:24;23.70;99.90
46976;DHT22;32724;51.094;6.996;2022-07-09T08:42:50;24.10;99.90
46976;DHT22;32724;51.094;6.996;2022-07-09T08:45:16;24.50;99.90
46976;DHT22;32724;51.094;6.996;2022-07-09T08:47:42;24.70;99.90
46976;DHT22;32724;51.094;6.996;2022-07-09T08:50:07;24.60;99.90
46976;DHT22;32724;51.094;6.996;2022-07-09T08:52:33;24.70;99.90
46976;DHT22;32724;51.094;6.996;2022-07-09T08:55:00;25.20;99.90
46976;DHT22;32724;51.094;6.996;2022-07-09T08:57:26;25.30;99.90
46976;DHT22;32724;51.094;6.996;2022-07-09T08:59:52;24.80;99.90
46976;DHT22;32724;51.094;6.996;2022-07-09T09:02:17;24.70;99.90
46976;DHT22;32724;51.094;6.996;2022-07-09T09:04:45;24.70;99.90
46976;DHT22;32724;51.094;6.996;2022-07-09T09:07:17;24.90;99.90
46976;DHT22;32724;51.094;6.996;2022-07-09T09:09:43;25.10;99.90
46976;DHT22;32724;51.094;6.996;2022-07-09T09:12:09;25.00;99.90
46976;DHT22;32724;51.094;6.996;2022-07-09T09:14:35;24.60;99.90
46976;DHT22;32724;51.094;6.996;2022-07-09T09:17:06;24.70;99.90
46976;DHT22;32724;51.094;6.996;2022-07-09T09:19:34;24.90;99.90
46976;DHT22;32724;51.094;6.996;2022-07-09T09:21:59;24.80;99.90
46976;DHT22;32724;51.094;6.996;2022-07-09T09:24:25;24.70;99.90
46976;DHT22;32724;51.094;6.996;2022-07-09T09:26:51;24.70;99.90
46976;DHT22;32724;51.094;6.996;2022-07-09T09:29:16;24.80;99.90
46976;DHT22;32724;51.094;6.996;2022-07-09T09:31:44;25.10;99.90
46976;DHT22;32724;51.094;6.996;2022-07-09T09:34:13;25.20;99.90
46976;DHT22;32724;51.094;6.996;2022-07-09T09:36:43;25.30;99.90
46976;DHT22;32724;51.094;6.996;2022-07-09T09:39:10;25.40;99.90
46976;DHT22;32724;51.094;6.996;2022-07-09T09:41:35;25.70;99.90
46976;DHT22;32724;51.094;6.996;2022-07-09T09:44:11;25.60;99.90
46976;DHT22;32724;51.094;6.996;2022-07-09T09:46:37;25.60;99.90
46976;DHT22;32724;51.094;6.996;2022-07-09T09:49:06;25.80;99.90
46976;DHT22;32724;51.094;6.996;2022-07-09T09:51:37;26.00;99.90
46976;DHT22;32724;51.094;6.996;2022-07-09T09:54:03;25.60;99.90
46976;DHT22;32724;51.094;6.996;2022-07-09T09:56:29;25.60;99.90
46976;DHT22;32724;51.094;6.996;2022-07-09T09:58:55;25.80;99.90
46976;DHT22;32724;51.094;6.996;2022-07-09T10:01:21;25.60;99.90
46976;DHT22;32724;51.094;6.996;2022-07-09T10:03:47;25.80;99.90
46976;DHT22;32724;51.094;6.996;2022-07-09T10:06:13;26.10;99.90
46976;DHT22;32724;51.094;6.996;2022-07-09T10:08:39;26.60;99.90
46976;DHT22;32724;51.094;6.996;2022-07-09T10:11:04;26.70;99.90
46976;DHT22;32724;51.094;6.996;2022-07-09T10:13:31;27.00;99.90
46976;DHT22;32724;51.094;6.996;2022-07-09T10:15:56;26.70;99.90
46976;DHT22;32724;51.094;6.996;2022-07-09T10:18:22;25.90;99.90
46976;DHT22;32724;51.094;6.996;2022-07-09T10:20:47;25.60;99.90
46976;DHT22;32724;51.094;6.996;2022-07-09T10:23:21;25.80;99.90
46976;DHT22;32724;51.094;6.996;2022-07-09T10:25:50;25.60;99.90
46976;DHT22;32724;51.094;6.996;2022-07-09T10:28:21;25.90;99.90
46976;DHT22;32724;51.094;6.996;2022-07-09T10:30:47;26.00;99.90
46976;DHT22;32724;51.094;6.996;2022-07-09T10:33:13;26.50;99.90
46976;DHT22;32724;51.094;6.996;2022-07-09T10:35:47;26.90;99.90
46976;DHT22;32724;51.094;6.996;2022-07-09T10:38:13;27.00;99.90
46976;DHT22;32724;51.094;6.996;2022-07-09T10:40:39;26.90;99.90
46976;DHT22;32724;51.094;6.996;2022-07-09T10:43:05;27.00;99.90
46976;DHT22;32724;51.094;6.996;2022-07-09T10:47:59;27.10;99.90
46976;DHT22;32724;51.094;6.996;2022-07-09T10:50:26;26.80;99.90
46976;DHT22;32724;51.094;6.996;2022-07-09T10:52:53;26.70;99.90
46976;DHT22;32724;51.094;6.996;2022-07-09T10:55:19;26.60;99.90
46976;DHT22;32724;51.094;6.996;2022-07-09T10:57:44;26.10;99.90
46976;DHT22;32724;51.094;6.996;2022-07-09T11:00:13;25.70;99.90
46976;DHT22;32724;51.094;6.996;2022-07-09T11:02:49;25.60;99.90
46976;DHT22;32724;51.094;6.996;2022-07-09T11:05:15;25.80;99.90
46976;DHT22;32724;51.094;6.996;2022-07-09T11:07:40;26.00;99.90
46976;DHT22;32724;51.094;6.996;2022-07-09T11:10:06;25.90;99.90
46976;DHT22;32724;51.094;6.996;2022-07-09T11:12:31;25.80;99.90
46976;DHT22;32724;51.094;6.996;2022-07-09T11:14:57;25.70;99.90
46976;DHT22;32724;51.094;6.996;2022-07-09T11:17:22;25.60;99.90
46976;DHT22;32724;51.094;6.996;2022-07-09T11:19:48;25.30;99.90
46976;DHT22;32724;51.094;6.996;2022-07-09T11:22:14;25.20;99.90
46976;DHT22;32724;51.094;6.996;2022-07-09T11:24:40;25.20;99.90
46976;DHT22;32724;51.094;6.996;2022-07-09T11:27:06;25.70;99.90
46976;DHT22;32724;51.094;6.996;2022-07-09T11:29:32;25.90;99.90
46976;DHT22;32724;51.094;6.996;2022-07-09T11:31:58;26.20;99.90
46976;DHT22;32724;51.094;6.996;2022-07-09T11:34:24;26.20;99.90
46976;DHT22;32724;51.094;6.996;2022-07-09T11:36:52;26.20;99.90
46976;DHT22;32724;51.094;6.996;2022-07-09T11:39:28;26.00;99.90
46976;DHT22;32724;51.094;6.996;2022-07-09T11:41:55;25.80;99.90
46976;DHT22;32724;51.094;6.996;2022-07-09T11:46:59;26.60;99.90
46976;DHT22;32724;51.094;6.996;2022-07-09T11:49:31;26.80;99.90
46976;DHT22;32724;51.094;6.996;2022-07-09T11:51:56;27.00;99.90
46976;DHT22;32724;51.094;6.996;2022-07-09T11:54:25;27.00;99.90
46976;DHT22;32724;51.094;6.996;2022-07-09T11:56:51;26.90;99.90
46976;DHT22;32724;51.094;6.996;2022-07-09T11:59:29;26.50;99.90
46976;DHT22;32724;51.094;6.996;2022-07-09T12:01:57;26.20;99.90
46976;DHT22;32724;51.094;6.996;2022-07-09T12:04:22;25.70;99.90
46976;DHT22;32724;51.094;6.996;2022-07-09T12:06:51;25.50;99.90
46976;DHT22;32724;51.094;6.996;2022-07-09T12:09:26;25.60;99.90
46976;DHT22;32724;51.094;6.996;2022-07-09T12:11:52;25.60;99.90
46976;DHT22;32724;51.094;6.996;2022-07-09T12:14:18;25.60;99.90
46976;DHT22;32724;51.094;6.996;2022-07-09T12:16:43;25.70;99.90
46976;DHT22;32724;51.094;6.996;2022-07-09T12:19:08;25.60;99.90
46976;DHT22;32724;51.094;6.996;2022-07-09T12:21:34;25.40;99.90
46976;DHT22;32724;51.094;6.996;2022-07-09T12:23:59;24.90;99.90
46976;DHT22;32724;51.094;6.996;2022-07-09T12:26:25;24.70;99.90
46976;DHT22;32724;51.094;6.996;2022-07-09T12:28:50;24.50;99.90
46976;DHT22;32724;51.094;6.996;2022-07-09T12:31:16;24.30;99.90
46976;DHT22;32724;51.094;6.996;2022-07-09T12:33:41;24.20;99.90
46976;DHT22;32724;51.094;6.996;2022-07-09T12:36:07;24.10;99.90
46976;DHT22;32724;51.094;6.996;2022-07-09T12:38:32;23.90;99.90
46976;DHT22;32724;51.094;6.996;2022-07-09T12:40:57;23.80;99.90
46976;DHT22;32724;51.094;6.996;2022-07-09T12:43:23;23.80;99.90
46976;DHT22;32724;51.094;6.996;2022-07-09T12:45:48;24.00;99.90
46976;DHT22;32724;51.094;6.996;2022-07-09T12:48:14;24.30;99.90
46976;DHT22;32724;51.094;6.996;2022-07-09T12:50:39;24.80;99.90
46976;DHT22;32724;51.094;6.996;2022-07-09T12:53:05;25.10;99.90
46976;DHT22;32724;51.094;6.996;2022-07-09T12:55:30;25.40;99.90
46976;DHT22;32724;51.094;6.996;2022-07-09T12:57:56;25.60;99.90
46976;DHT22;32724;51.094;6.996;2022-07-09T13:00:21;25.70;99.90
46976;DHT22;32724;51.094;6.996;2022-07-09T13:02:47;25.60;99.90
46976;DHT22;32724;51.094;6.996;2022-07-09T13:05:13;25.80;99.90
46976;DHT22;32724;51.094;6.996;2022-07-09T13:07:40;25.90;99.90
46976;DHT22;32724;51.094;6.996;2022-07-09T13:10:05;25.80;99.90
46976;DHT22;32724;51.094;6.996;2022-07-09T13:12:31;25.80;99.90
46976;DHT22;32724;51.094;6.996;2022-07-09T13:14:58;25.80;99.90
46976;DHT22;32724;51.094;6.996;2022-07-09T13:17:24;25.60;99.90
46976;DHT22;32724;51.094;6.996;2022-07-09T13:19:50;25.50;99.90
46976;DHT22;32724;51.094;6.996;2022-07-09T13:22:17;25.40;99.90
46976;DHT22;32724;51.094;6.996;2022-07-09T13:24:43;25.40;99.90
46976;DHT22;32724;51.094;6.996;2022-07-09T13:27:08;25.40;99.90
46976;DHT22;32724;51.094;6.996;2022-07-09T13:29:36;25.30;99.90
46976;DHT22;32724;51.094;6.996;2022-07-09T13:32:02;25.20;99.90
46976;DHT22;32724;51.094;6.996;2022-07-09T13:34:27;25.00;99.90
46976;DHT22;32724;51.094;6.996;2022-07-09T13:36:53;25.00;99.90
46976;DHT22;32724;51.094;6.996;2022-07-09T13:39:18;24.70;99.90
46976;DHT22;32724;51.094;6.996;2022-07-09T13:41:44;24.40;99.90
46976;DHT22;32724;51.094;6.996;2022-07-09T13:44:09;24.30;99.90
46976;DHT22;32724;51.094;6.996;2022-07-09T13:46:34;24.30;99.90
46976;DHT22;32724;51.094;6.996;2022-07-09T13:49:00;24.40;99.90
46976;DHT22;32724;51.094;6.996;2022-07-09T13:51:25;24.60;99.90
46976;DHT22;32724;51.094;6.996;2022-07-09T13:53:51;24.30;99.90
46976;DHT22;32724;51.094;6.996;2022-07-09T13:56:16;23.50;99.90
46976;DHT22;32724;51.094;6.996;2022-07-09T13:58:42;23.00;99.90
46976;DHT22;32724;51.094;6.996;2022-07-09T14:01:07;23.10;99.90
46976;DHT22;32724;51.094;6.996;2022-07-09T14:03:33;23.20;99.90
46976;DHT22;32724;51.094;6.996;2022-07-09T14:05:58;23.10;99.90
46976;DHT22;32724;51.094;6.996;2022-07-09T14:08:24;23.20;99.90
46976;DHT22;32724;51.094;6.996;2022-07-09T14:10:52;23.30;99.90
46976;DHT22;32724;51.094;6.996;2022-07-09T14:13:24;23.20;99.90
46976;DHT22;32724;51.094;6.996;2022-07-09T14:15:52;23.10;99.90
46976;DHT22;32724;51.094;6.996;2022-07-09T14:18:17;22.90;99.90
46976;DHT22;32724;51.094;6.996;2022-07-09T14:20:43;22.80;99.90
46976;DHT22;32724;51.094;6.996;2022-07-09T14:23:08;23.00;99.90
46976;DHT22;32724;51.094;6.996;2022-07-09T14:25:34;22.90;99.90
46976;DHT22;32724;51.094;6.996;2022-07-09T14:27:59;23.10;99.90
46976;DHT22;32724;51.094;6.996;2022-07-09T14:30:25;23.40;99.90
46976;DHT22;32724;51.094;6.996;2022-07-09T14:32:50;23.50;99.90
46976;DHT22;32724;51.094;6.996;2022-07-09T14:35:16;23.60;99.90
46976;DHT22;32724;51.094;6.996;2022-07-09T14:37:41;23.70;99.90
46976;DHT22;32724;51.094;6.996;2022-07-09T14:40:07;23.60;99.90
46976;DHT22;32724;51.094;6.996;2022-07-09T14:42:33;23.70;99.90
46976;DHT22;32724;51.094;6.996;2022-07-09T14:44:59;23.70;99.90
46976;DHT22;32724;51.094;6.996;2022-07-09T14:47:24;23.70;99.90
46976;DHT22;32724;51.094;6.996;2022-07-09T14:49:49;23.70;99.90
46976;DHT22;32724;51.094;6.996;2022-07-09T14:52:15;23.80;99.90
46976;DHT22;32724;51.094;6.996;2022-07-09T14:54:41;23.80;99.90
46976;DHT22;32724;51.094;6.996;2022-07-09T14:57:06;23.60;99.90
46976;DHT22;32724;51.094;6.996;2022-07-09T14:59:32;23.70;99.90
46976;DHT22;32724;51.094;6.996;2022-07-09T15:01:57;23.60;99.90
46976;DHT22;32724;51.094;6.996;2022-07-09T15:04:23;23.60;99.90
46976;DHT22;32724;51.094;6.996;2022-07-09T15:06:48;23.50;99.90
46976;DHT22;32724;51.094;6.996;2022-07-09T15:09:14;23.40;99.90
46976;DHT22;32724;51.094;6.996;2022-07-09T15:11:39;23.50;99.90
46976;DHT22;32724;51.094;6.996;2022-07-09T15:14:05;23.90;99.90
46976;DHT22;32724;51.094;6.996;2022-07-09T15:16:30;24.20;99.90
46976;DHT22;32724;51.094;6.996;2022-07-09T15:18:56;24.20;99.90
46976;DHT22;32724;51.094;6.996;2022-07-09T15:21:22;24.20;99.90
46976;DHT22;32724;51.094;6.996;2022-07-09T15:23:47;24.30;99.90
46976;DHT22;32724;51.094;6.996;2022-07-09T15:26:13;24.20;99.90